• Join FlightAware (Why Join?)
  • Login
  • US Flag 
02:14AM EDT


 

Airport Tracker/Info


-or-


 

Live Flight TrackerFlight Track Log ✈ N888CV ✈ 11-Jul-2013 ✈ KEYF - F45

Flight Track Log - Related Links

Times and Time Zones

All times are in EDT time to prevent confusion due to time zone crossing. See the N888CV flight status page for this flight to view local times or setup timezone preferences in your user account.

Time Position Orientation Groundspeed Altitude Reporting Facility
EDT Latitude Longitude Course Direction KTS MPH feet Rate Location/Type
03:41PM 34.4550 -78.5236 142° Southeast 118 136 9,200  Level Washington Center
03:42PM 34.4306 -78.5003 142° Southeast 118 136 10,700 1,560 Climbing Washington Center
03:44PM 34.4147 -78.4644 118° Southeast 111 128 12,400 1,380 Climbing Washington Center
03:45PM 34.3906 -78.4333 133° Southeast 117 135 13,600 1,080 Climbing Washington Center
03:45PM 34.3664 -78.3947 127° Southeast 129 148 14,600 660 Climbing Washington Center
03:46PM 34.3383 -78.3486 126° Southeast 152 175 15,000 240 Climbing Washington Center
03:47PM 34.3000 -78.2869 127° Southeast 194 223 15,200 1,320 Climbing Washington Center
03:49PM 34.2678 -78.2381 129° Southeast 201 231 17,700 1,740 Climbing Washington Center
03:49PM 34.2456 -78.1997 125° Southeast 172 198 18,700 960 Climbing Washington Center
03:50PM 34.2175 -78.1536 126° Southeast 159 183 19,600 960 Climbing Washington Center
03:52PM 34.1700 -78.0739 126° Southeast 164 189 21,300 900 Climbing Jacksonville Center
03:53PM 34.1411 -78.0303 129° Southeast 175 201 22,100 720 Climbing Jacksonville Center
03:54PM 34.1050 -78.0147 160° South 154 177 22,800 660 Climbing Jacksonville Center
03:55PM 34.0639 -78.0247 191° South 136 157 23,500 540 Climbing Jacksonville Center
03:56PM 34.0189 -78.0472 203° Southwest 154 177 23,900 240 Climbing Jacksonville Center
03:57PM 33.9672 -78.0600 192° South 174 200 24,000  Climbing Jacksonville Center
03:58PM 33.9094 -78.0808 197° South 200 230 24,000  Level Jacksonville Center
03:59PM 33.8475 -78.0967 192° South 217 250 24,000  Level Jacksonville Center
04:00PM 33.7836 -78.1150 193° South 230 265 24,000  Level Jacksonville Center
04:01PM 33.7214 -78.1311 192° South 240 276 24,000  Level Jacksonville Center
04:02PM 33.6514 -78.1497 192° South 246 283 24,000  Level Jacksonville Center
04:03PM 33.5892 -78.1656 192° South 246 283 24,000  Level Jacksonville Center
04:04PM 33.5253 -78.1814 192° South 241 277 24,000  Level Jacksonville Center
04:05PM 33.4611 -78.1997 193° South 241 277 24,000  Level Jacksonville Center
04:06PM 33.3992 -78.2181 194° South 241 277 24,000  Level Jacksonville Center
04:07PM 33.3353 -78.2361 193° South 241 277 24,000  Level Jacksonville Center
04:08PM 33.2714 -78.2569 195° South 241 277 24,000  Level Jacksonville Center
04:09PM 33.2050 -78.2728 191° South 241 277 24,000  Level Jacksonville Center
04:10PM 33.1411 -78.2911 194° South 241 277 24,000  Level Jacksonville Center
04:11PM 33.0769 -78.3042 190° South 241 277 24,000  Level Jacksonville Center
04:12PM 33.0128 -78.3222 193° South 241 277 24,000  Level Jacksonville Center
04:13PM 32.9464 -78.3331 188° South 241 277 24,000  Level Jacksonville Center
04:14PM 32.8822 -78.3489 192° South 241 277 24,000  Level Jacksonville Center
04:15PM 32.8186 -78.3742 198° South 241 277 24,000  Level Jacksonville Center
04:16PM 32.7567 -78.3922 194° South 241 277 24,000  Level Jacksonville Center
04:17PM 32.6925 -78.4078 192° South 241 277 24,000  Level Jacksonville Center
04:18PM 32.6283 -78.4233 192° South 241 277 24,000  Level Jacksonville Center
04:19PM 32.5664 -78.4411 194° South 236 272 24,000  Level Jacksonville Center
04:20PM 32.5022 -78.4564 191° South 236 272 24,000  Level Jacksonville Center
04:21PM 32.4403 -78.4742 194° South 236 272 24,000  Level Jacksonville Center
04:22PM 32.3781 -78.4919 194° South 236 272 24,000  Level Jacksonville Center
04:23PM 32.3181 -78.5072 192° South 236 272 24,000  Level Jacksonville Center
04:24PM 32.2539 -78.5225 191° South 236 272 24,000  Level Jacksonville Center
04:25PM 32.1878 -78.5406 193° South 236 272 24,000  Level Jacksonville Center
04:26PM 32.1236 -78.5583 193° South 236 272 24,000  Level Jacksonville Center
04:27PM 32.0594 -78.5761 193° South 236 272 24,000  Level Jacksonville Center
04:28PM 31.9956 -78.5936 193° South 236 272 24,000  Level Jacksonville Center
04:29PM 31.9333 -78.6089 192° South 237 273 24,000  Level Jacksonville Center
04:30PM 31.8692 -78.6264 193° South 237 273 24,000  Level Jacksonville Center
04:31PM 31.8031 -78.6442 193° South 243 280 24,000  Level Jacksonville Center
04:32PM 31.7386 -78.6519 186° South 243 280 24,000  Level Jacksonville Center
04:33PM 31.6719 -78.6575 184° South 237 273 24,000  Level Jacksonville Center
04:34PM 31.6136 -78.6603 182° South 232 267 24,000 -60 Level Jacksonville Center
04:35PM 31.5489 -78.6606 180° South 237 273 23,900  Descending Jacksonville Center
04:36PM 31.4761 -78.6689 186° South 243 280 24,000  Climbing Jacksonville Center
04:37PM 31.4156 -78.6644 176° South 238 274 24,000  Level Jacksonville Center
04:38PM 31.3447 -78.6700 184° South 233 268 24,000  Level Jacksonville Center
04:39PM 31.2822 -78.6753 184° South 239 275 24,000  Level Jacksonville Center
04:40PM 31.2133 -78.6758 180° South 238 274 24,000  Level Jacksonville Center
04:41PM 31.1486 -78.6789 182° South 238 274 24,000  Level Jacksonville Center
04:42PM 31.0800 -78.6842 184° South 237 273 24,000  Level Jacksonville Center
04:44PM 30.9941 -78.6840 180° South  Level FlightAware Approximate
04:44PM 30.9444 -78.6878 180° South 233 268 24,000  Level Jacksonville Center
04:45PM 30.8778 -78.6908 182° South 238 274 24,000  Level Jacksonville Center
04:46PM 30.8111 -78.6961 184° South 247 284 24,000  Level Jacksonville Center
04:47PM 30.7422 -78.6944 179° South 242 278 24,000  Level Jacksonville Center
04:48PM 30.6819 -78.6994 184° South 232 267 24,000  Level Jacksonville Center
04:49PM 30.6050 -78.7078 185° South 258 297 24,000  Level Jacksonville Center
04:50PM 30.5578 -78.7317 204° Southwest 220 253 24,000 -60 Level Jacksonville Center
04:51PM 30.4853 -78.7539 195° South 251 289 23,900  Descending Jacksonville Center
04:53PM 30.4028 -78.7867 199° South 235 270 24,000  Climbing Miami Center
04:54PM 30.3378 -78.8094 197° South 241 277 24,000  Level Miami Center
04:55PM 30.2689 -78.8347 198° South 251 289 24,000  Level Miami Center
04:56PM 30.2142 -78.8553 198° South 237 273 24,000  Level Miami Center
04:57PM 30.1283 -78.8825 195° South 248 285 24,000  Level Miami Center
04:58PM 30.0717 -78.9053 199° South 243 280 24,000  Level Miami Center
04:59PM 30.0111 -78.9306 200° South 248 285 24,000 -60 Level Miami Center
05:00PM 29.9522 -78.9556 200° South 248 285 23,900  Descending Miami Center
05:01PM 29.8831 -78.9736 193° South 248 285 24,000  Climbing Miami Center
05:02PM 29.8181 -78.9986 198° South 248 285 24,000  Level Miami Center
05:03PM 29.7553 -79.0142 192° South 248 285 24,000  Level Miami Center
05:04PM 29.6925 -79.0294 192° South 237 273 24,000 -60 Level Miami Center
05:05PM 29.6236 -79.0378 186° South 245 282 23,900 -60 Descending Miami Center
05:06PM 29.5525 -79.0458 186° South 245 282 23,900  Level Miami Center
05:07PM 29.4897 -79.0636 194° South 245 282 23,900  Level Miami Center
05:08PM 29.4228 -79.0717 186° South 238 274 23,900  Level Miami Center
05:09PM 29.3558 -79.0822 188° South 238 274 24,000  Climbing Miami Center
05:10PM 29.2931 -79.0953 190° South 238 274 24,000  Level Miami Center
05:11PM 29.2222 -79.1058 187° South 244 281 24,000 -60 Level Miami Center
05:12PM 29.1511 -79.1161 187° South 250 288 23,900  Descending Miami Center
05:13PM 29.0903 -79.1339 194° South 245 282 24,000  Climbing Miami Center
05:14PM 29.0253 -79.1444 188° South 240 276 24,000  Level Miami Center
05:15PM 28.9503 -79.1500 184° South 245 282 24,000 -60 Level Miami Center
05:16PM 28.8853 -79.1678 193° South 240 276 23,900 -60 Descending Miami Center
05:17PM 28.8161 -79.1806 189° South 240 276 23,900  Level Miami Center
05:18PM 28.7469 -79.1933 189° South 245 282 23,900  Level Miami Center
05:19PM 28.6822 -79.2061 190° South 245 282 23,900  Level Miami Center
05:20PM 28.6153 -79.2189 190° South 245 282 23,900  Level Miami Center
05:21PM 28.5461 -79.2292 187° South 245 282 23,900  Level Miami Center
05:22PM 28.4792 -79.2397 188° South 245 282 23,900  Level Miami Center
05:23PM 28.4122 -79.2522 189° South 245 282 24,000  Climbing Miami Center
05:24PM 28.3453 -79.2650 190° South 245 282 23,900 -60 Descending Miami Center
05:25PM 28.2781 -79.2778 190° South 245 282 23,900  Level Miami Center
05:26PM 28.2111 -79.2881 188° South 250 288 23,900 -120 Level Miami Center
05:27PM 28.1442 -79.3031 191° South 250 288 23,700 -720 Descending Miami Center
05:28PM 28.0708 -79.3133 187° South 258 297 22,500 -1,020 Descending Miami Center
05:29PM 27.9975 -79.3258 189° South 263 303 21,700 -960 Descending Miami Center
05:30PM 27.9219 -79.3500 196° South 273 314 20,600 -1,440 Descending Miami Center
05:31PM 27.8650 -79.3933 214° Southwest 278 320 18,900 -1,740 Descending Miami Center
05:32PM 27.7992 -79.4483 216° Southwest 278 320 17,200 -1,500 Descending Miami Center
05:33PM 27.7378 -79.4939 213° Southwest 278 320 15,900 -1,440 Descending Miami Center
05:34PM 27.6744 -79.5347 210° Southwest 268 308 14,400 -1,560 Descending Miami Center
05:35PM 27.6175 -79.5686 208° Southwest 262 302 12,800 -1,620 Descending Miami Center
05:36PM 27.5519 -79.6092 209° Southwest 262 302 11,200 -1,620 Descending Miami Center
05:37PM 27.4842 -79.6542 211° Southwest 267 307 9,600 -1,500 Descending Miami Center
05:38PM 27.4231 -79.6950 211° Southwest 267 307 8,300 -1,200 Descending Miami Center
05:39PM 27.3617 -79.7331 209° Southwest 262 302 7,200 -1,200 Descending Miami Center
05:40PM 27.3067 -79.7717 212° Southwest 257 296 5,900 -660 Descending Miami Center
05:41PM 27.2431 -79.8144 211° Southwest 257 296 5,900  Level Miami Center
05:42PM 27.1881 -79.8503 210° Southwest 252 290 5,900  Level Miami Center
05:43PM 27.1308 -79.8839 208° Southwest 241 277 5,900  Level Miami Center
05:44PM 27.0864 -79.9222 218° Southwest 234 269 5,900 -60 Level Miami Center
05:45PM 27.0475 -79.9797 233° Southwest 234 269 5,800  Descending Miami Center
05:46PM 26.9961 -80.0436 228° Southwest 246 283 6,000 60 Climbing Miami Center
05:47PM 26.9489 -80.1006 227° Southwest 251 289 6,000  Level Miami Center
05:48PM 26.9017 -80.1572 227° Southwest 251 289 6,000  Level Miami Center
05:49PM 26.8522 -80.2142 226° Southwest 251 289 6,000  Level Miami Center
05:50PM 26.8242 -80.2483 227° Southwest 251 289 6,000  Level Miami Center
05:51PM 26.8242 -80.2483 222° Southwest 251 289 6,000  Level Miami Center
05:54PM 26.8333 -80.2167 42° Northeast  Level FlightAware Approximate
06:01PM 26.8459 -80.2223 42° Northeast  Level Estimated
06:02PM 26.8459 -80.2223 42° Northeast  Level Estimated
06:03PM 26.8459 -80.2223 42° Northeast  Level Estimated
06:04PM 26.8459 -80.2223 42° Northeast  Level Estimated
06:05PM 26.8459 -80.2223 42° Northeast  Level Estimated
06:06PM 26.8459 -80.2223 42° Northeast  Level Estimated
06:07PM 26.8459 -80.2223 42° Northeast  Level Estimated